sensor_id;sensor_type;location;lat;lon;timestamp;P1;durP1;ratioP1;P2;durP2;ratioP2
60257;SDS011;46115;44.484;11.314;2022-08-30T00:04:05;5.65;;;3.40;;
60257;SDS011;46115;44.484;11.314;2022-08-30T00:08:08;6.40;;;3.40;;
60257;SDS011;46115;44.484;11.314;2022-08-30T00:12:10;6.68;;;3.50;;
60257;SDS011;46115;44.484;11.314;2022-08-30T00:16:15;5.32;;;3.30;;
60257;SDS011;46115;44.484;11.314;2022-08-30T00:20:19;7.03;;;3.22;;
60257;SDS011;46115;44.484;11.314;2022-08-30T00:24:23;6.30;;;3.15;;
60257;SDS011;46115;44.484;11.314;2022-08-30T00:28:25;5.93;;;3.35;;
60257;SDS011;46115;44.484;11.314;2022-08-30T00:32:29;7.65;;;3.60;;
60257;SDS011;46115;44.484;11.314;2022-08-30T00:36:32;7.85;;;3.65;;
60257;SDS011;46115;44.484;11.314;2022-08-30T00:40:34;6.38;;;3.53;;
60257;SDS011;46115;44.484;11.314;2022-08-30T00:44:38;5.85;;;3.45;;
60257;SDS011;46115;44.484;11.314;2022-08-30T00:48:44;4.40;;;3.42;;
60257;SDS011;46115;44.484;11.314;2022-08-30T00:52:48;6.25;;;3.35;;
60257;SDS011;46115;44.484;11.314;2022-08-30T00:56:54;6.20;;;3.38;;
60257;SDS011;46115;44.484;11.314;2022-08-30T01:00:57;4.03;;;3.50;;
60257;SDS011;46115;44.484;11.314;2022-08-30T01:05:04;7.65;;;3.65;;
60257;SDS011;46115;44.484;11.314;2022-08-30T01:09:10;3.38;;;3.08;;
60257;SDS011;46115;44.484;11.314;2022-08-30T01:13:13;5.68;;;3.55;;
60257;SDS011;46115;44.484;11.314;2022-08-30T01:17:16;4.57;;;3.38;;
60257;SDS011;46115;44.484;11.314;2022-08-30T01:21:21;5.47;;;3.40;;
60257;SDS011;46115;44.484;11.314;2022-08-30T01:25:29;6.70;;;3.22;;
60257;SDS011;46115;44.484;11.314;2022-08-30T01:29:32;4.82;;;3.53;;
60257;SDS011;46115;44.484;11.314;2022-08-30T01:33:35;6.28;;;3.50;;
60257;SDS011;46115;44.484;11.314;2022-08-30T01:37:38;5.30;;;3.50;;
60257;SDS011;46115;44.484;11.314;2022-08-30T01:41:42;5.88;;;3.65;;
60257;SDS011;46115;44.484;11.314;2022-08-30T01:45:45;7.18;;;3.58;;
60257;SDS011;46115;44.484;11.314;2022-08-30T01:49:48;4.00;;;3.40;;
60257;SDS011;46115;44.484;11.314;2022-08-30T01:53:52;6.18;;;3.40;;
60257;SDS011;46115;44.484;11.314;2022-08-30T01:57:56;4.10;;;3.40;;
60257;SDS011;46115;44.484;11.314;2022-08-30T02:01:58;7.50;;;3.78;;
60257;SDS011;46115;44.484;11.314;2022-08-30T02:06:02;4.22;;;3.55;;
60257;SDS011;46115;44.484;11.314;2022-08-30T02:10:05;5.32;;;3.60;;
60257;SDS011;46115;44.484;11.314;2022-08-30T02:14:10;5.97;;;3.70;;
60257;SDS011;46115;44.484;11.314;2022-08-30T02:18:12;7.90;;;3.60;;
60257;SDS011;46115;44.484;11.314;2022-08-30T02:22:14;8.35;;;3.70;;
60257;SDS011;46115;44.484;11.314;2022-08-30T02:26:17;7.43;;;3.70;;
60257;SDS011;46115;44.484;11.314;2022-08-30T02:30:21;6.63;;;3.72;;
60257;SDS011;46115;44.484;11.314;2022-08-30T02:34:24;6.15;;;3.30;;
60257;SDS011;46115;44.484;11.314;2022-08-30T02:38:26;4.57;;;3.30;;
60257;SDS011;46115;44.484;11.314;2022-08-30T02:42:29;4.95;;;3.45;;
60257;SDS011;46115;44.484;11.314;2022-08-30T02:46:33;8.63;;;3.50;;
60257;SDS011;46115;44.484;11.314;2022-08-30T02:50:38;7.32;;;3.50;;
60257;SDS011;46115;44.484;11.314;2022-08-30T02:54:41;3.90;;;3.30;;
60257;SDS011;46115;44.484;11.314;2022-08-30T02:58:43;4.93;;;3.50;;
60257;SDS011;46115;44.484;11.314;2022-08-30T03:02:47;5.47;;;3.42;;
60257;SDS011;46115;44.484;11.314;2022-08-30T03:06:50;10.48;;;3.85;;
60257;SDS011;46115;44.484;11.314;2022-08-30T03:10:52;7.85;;;3.50;;
60257;SDS011;46115;44.484;11.314;2022-08-30T03:14:56;7.05;;;3.50;;
60257;SDS011;46115;44.484;11.314;2022-08-30T03:19:00;6.40;;;4.10;;
60257;SDS011;46115;44.484;11.314;2022-08-30T03:23:03;4.78;;;3.70;;
60257;SDS011;46115;44.484;11.314;2022-08-30T03:27:05;7.60;;;3.47;;
60257;SDS011;46115;44.484;11.314;2022-08-30T03:31:08;5.30;;;3.67;;
60257;SDS011;46115;44.484;11.314;2022-08-30T03:35:13;4.18;;;3.60;;
60257;SDS011;46115;44.484;11.314;2022-08-30T03:39:17;3.97;;;3.58;;
60257;SDS011;46115;44.484;11.314;2022-08-30T03:43:19;9.38;;;3.65;;
60257;SDS011;46115;44.484;11.314;2022-08-30T03:47:22;5.40;;;3.50;;
60257;SDS011;46115;44.484;11.314;2022-08-30T03:51:26;4.50;;;3.78;;
60257;SDS011;46115;44.484;11.314;2022-08-30T03:55:28;4.30;;;3.60;;
60257;SDS011;46115;44.484;11.314;2022-08-30T03:59:31;6.45;;;3.85;;
60257;SDS011;46115;44.484;11.314;2022-08-30T04:03:33;5.03;;;3.50;;
60257;SDS011;46115;44.484;11.314;2022-08-30T04:07:38;6.63;;;3.80;;
60257;SDS011;46115;44.484;11.314;2022-08-30T04:11:40;8.60;;;3.97;;
60257;SDS011;46115;44.484;11.314;2022-08-30T04:15:43;4.47;;;3.72;;
60257;SDS011;46115;44.484;11.314;2022-08-30T04:19:45;5.45;;;3.50;;
60257;SDS011;46115;44.484;11.314;2022-08-30T04:23:49;7.18;;;3.80;;
60257;SDS011;46115;44.484;11.314;2022-08-30T04:27:52;9.93;;;3.85;;
60257;SDS011;46115;44.484;11.314;2022-08-30T04:31:55;6.03;;;3.55;;
60257;SDS011;46115;44.484;11.314;2022-08-30T04:36:00;6.30;;;3.78;;
60257;SDS011;46115;44.484;11.314;2022-08-30T04:40:06;5.03;;;3.70;;
60257;SDS011;46115;44.484;11.314;2022-08-30T04:44:10;5.85;;;3.72;;
60257;SDS011;46115;44.484;11.314;2022-08-30T04:48:12;5.85;;;3.70;;
60257;SDS011;46115;44.484;11.314;2022-08-30T04:52:17;4.50;;;3.70;;
60257;SDS011;46115;44.484;11.314;2022-08-30T04:56:22;5.47;;;3.40;;
60257;SDS011;46115;44.484;11.314;2022-08-30T05:00:25;4.63;;;3.80;;
60257;SDS011;46115;44.484;11.314;2022-08-30T05:04:27;6.13;;;3.80;;
60257;SDS011;46115;44.484;11.314;2022-08-30T05:08:30;5.90;;;3.65;;
60257;SDS011;46115;44.484;11.314;2022-08-30T05:12:34;7.75;;;3.78;;
60257;SDS011;46115;44.484;11.314;2022-08-30T05:16:36;5.25;;;3.70;;
60257;SDS011;46115;44.484;11.314;2022-08-30T05:20:38;4.30;;;3.42;;
60257;SDS011;46115;44.484;11.314;2022-08-30T05:24:41;3.92;;;3.58;;
60257;SDS011;46115;44.484;11.314;2022-08-30T05:28:45;7.32;;;3.65;;
60257;SDS011;46115;44.484;11.314;2022-08-30T05:32:48;6.40;;;3.60;;
60257;SDS011;46115;44.484;11.314;2022-08-30T05:36:50;5.78;;;3.42;;
60257;SDS011;46115;44.484;11.314;2022-08-30T05:40:53;6.03;;;3.47;;
60257;SDS011;46115;44.484;11.314;2022-08-30T05:44:57;5.07;;;3.50;;
60257;SDS011;46115;44.484;11.314;2022-08-30T05:49:00;5.13;;;3.65;;
60257;SDS011;46115;44.484;11.314;2022-08-30T05:53:04;3.65;;;3.35;;
60257;SDS011;46115;44.484;11.314;2022-08-30T05:57:06;8.40;;;3.45;;
60257;SDS011;46115;44.484;11.314;2022-08-30T06:01:19;8.55;;;3.10;;
60257;SDS011;46115;44.484;11.314;2022-08-30T06:05:23;5.57;;;3.00;;
60257;SDS011;46115;44.484;11.314;2022-08-30T06:09:25;3.55;;;2.80;;
60257;SDS011;46115;44.484;11.314;2022-08-30T06:13:27;4.38;;;2.83;;
60257;SDS011;46115;44.484;11.314;2022-08-30T06:17:33;6.97;;;2.80;;
60257;SDS011;46115;44.484;11.314;2022-08-30T06:21:35;5.05;;;2.67;;
60257;SDS011;46115;44.484;11.314;2022-08-30T06:25:39;6.22;;;2.67;;
60257;SDS011;46115;44.484;11.314;2022-08-30T06:29:41;6.65;;;2.50;;
60257;SDS011;46115;44.484;11.314;2022-08-30T06:33:46;3.85;;;2.10;;
60257;SDS011;46115;44.484;11.314;2022-08-30T06:37:49;3.90;;;2.00;;
60257;SDS011;46115;44.484;11.314;2022-08-30T06:41:51;4.85;;;2.00;;
60257;SDS011;46115;44.484;11.314;2022-08-30T06:46:01;3.88;;;2.28;;
60257;SDS011;46115;44.484;11.314;2022-08-30T06:50:06;4.70;;;1.83;;
60257;SDS011;46115;44.484;11.314;2022-08-30T06:54:10;5.22;;;1.90;;
60257;SDS011;46115;44.484;11.314;2022-08-30T06:58:13;4.28;;;1.70;;
60257;SDS011;46115;44.484;11.314;2022-08-30T07:02:16;6.13;;;1.80;;
60257;SDS011;46115;44.484;11.314;2022-08-30T07:06:20;3.75;;;1.60;;
60257;SDS011;46115;44.484;11.314;2022-08-30T07:10:24;6.30;;;1.70;;
60257;SDS011;46115;44.484;11.314;2022-08-30T07:14:27;4.47;;;1.70;;
60257;SDS011;46115;44.484;11.314;2022-08-30T07:18:29;2.63;;;1.60;;
60257;SDS011;46115;44.484;11.314;2022-08-30T07:26:52;3.65;;;1.67;;
60257;SDS011;46115;44.484;11.314;2022-08-30T07:30:55;3.17;;;1.70;;
60257;SDS011;46115;44.484;11.314;2022-08-30T07:34:57;6.10;;;1.83;;
60257;SDS011;46115;44.484;11.314;2022-08-30T07:39:01;3.03;;;1.70;;
60257;SDS011;46115;44.484;11.314;2022-08-30T07:43:05;2.97;;;1.63;;
60257;SDS011;46115;44.484;11.314;2022-08-30T07:47:07;4.38;;;1.75;;
60257;SDS011;46115;44.484;11.314;2022-08-30T07:51:10;4.10;;;1.90;;
60257;SDS011;46115;44.484;11.314;2022-08-30T07:55:15;4.30;;;1.60;;
60257;SDS011;46115;44.484;11.314;2022-08-30T07:59:18;2.95;;;1.90;;
60257;SDS011;46115;44.484;11.314;2022-08-30T08:03:20;4.22;;;1.95;;
60257;SDS011;46115;44.484;11.314;2022-08-30T08:07:23;2.88;;;1.80;;
60257;SDS011;46115;44.484;11.314;2022-08-30T08:11:27;5.03;;;2.13;;
60257;SDS011;46115;44.484;11.314;2022-08-30T08:15:30;3.40;;;1.98;;
60257;SDS011;46115;44.484;11.314;2022-08-30T08:19:33;4.32;;;2.17;;
60257;SDS011;46115;44.484;11.314;2022-08-30T08:23:35;4.50;;;2.10;;
60257;SDS011;46115;44.484;11.314;2022-08-30T08:27:40;4.13;;;2.33;;
60257;SDS011;46115;44.484;11.314;2022-08-30T08:31:42;4.30;;;2.38;;
60257;SDS011;46115;44.484;11.314;2022-08-30T08:35:46;4.10;;;2.30;;
60257;SDS011;46115;44.484;11.314;2022-08-30T08:39:49;3.78;;;2.33;;
60257;SDS011;46115;44.484;11.314;2022-08-30T08:43:53;4.05;;;2.63;;
60257;SDS011;46115;44.484;11.314;2022-08-30T08:47:57;7.03;;;2.70;;
60257;SDS011;46115;44.484;11.314;2022-08-30T08:52:05;4.03;;;2.40;;
60257;SDS011;46115;44.484;11.314;2022-08-30T08:56:26;3.92;;;2.50;;
60257;SDS011;46115;44.484;11.314;2022-08-30T09:00:30;5.38;;;2.70;;
60257;SDS011;46115;44.484;11.314;2022-08-30T09:04:34;6.30;;;2.88;;
60257;SDS011;46115;44.484;11.314;2022-08-30T09:08:38;8.25;;;3.22;;
60257;SDS011;46115;44.484;11.314;2022-08-30T09:12:41;7.95;;;3.25;;
60257;SDS011;46115;44.484;11.314;2022-08-30T09:21:05;4.63;;;3.50;;
60257;SDS011;46115;44.484;11.314;2022-08-30T09:25:17;6.60;;;3.70;;
60257;SDS011;46115;44.484;11.314;2022-08-30T09:29:23;6.32;;;3.47;;
60257;SDS011;46115;44.484;11.314;2022-08-30T09:33:27;5.25;;;3.60;;
60257;SDS011;46115;44.484;11.314;2022-08-30T09:37:30;6.18;;;3.67;;
60257;SDS011;46115;44.484;11.314;2022-08-30T09:41:37;9.05;;;4.28;;
60257;SDS011;46115;44.484;11.314;2022-08-30T09:45:43;8.45;;;3.78;;
60257;SDS011;46115;44.484;11.314;2022-08-30T09:49:49;5.35;;;3.50;;
60257;SDS011;46115;44.484;11.314;2022-08-30T09:54:05;7.75;;;4.25;;
60257;SDS011;46115;44.484;11.314;2022-08-30T09:58:21;4.82;;;3.47;;
60257;SDS011;46115;44.484;11.314;2022-08-30T10:02:40;6.50;;;4.05;;
60257;SDS011;46115;44.484;11.314;2022-08-30T10:06:53;6.00;;;4.28;;
60257;SDS011;46115;44.484;11.314;2022-08-30T10:11:00;7.03;;;4.88;;
60257;SDS011;46115;44.484;11.314;2022-08-30T10:15:09;8.10;;;4.38;;
60257;SDS011;46115;44.484;11.314;2022-08-30T10:19:22;5.55;;;3.95;;
60257;SDS011;46115;44.484;11.314;2022-08-30T10:23:32;8.65;;;4.40;;
60257;SDS011;46115;44.484;11.314;2022-08-30T10:27:40;8.70;;;4.50;;
60257;SDS011;46115;44.484;11.314;2022-08-30T10:31:49;5.15;;;4.10;;
60257;SDS011;46115;44.484;11.314;2022-08-30T10:35:57;7.05;;;3.90;;
60257;SDS011;46115;44.484;11.314;2022-08-30T10:40:06;7.07;;;3.95;;
60257;SDS011;46115;44.484;11.314;2022-08-30T10:44:28;6.65;;;3.85;;
60257;SDS011;46115;44.484;11.314;2022-08-30T10:48:36;6.88;;;3.80;;
60257;SDS011;46115;44.484;11.314;2022-08-30T10:52:43;8.75;;;4.00;;
60257;SDS011;46115;44.484;11.314;2022-08-30T10:56:52;5.30;;;3.90;;
60257;SDS011;46115;44.484;11.314;2022-08-30T11:01:01;5.57;;;4.05;;
60257;SDS011;46115;44.484;11.314;2022-08-30T11:05:29;5.03;;;4.50;;
60257;SDS011;46115;44.484;11.314;2022-08-30T11:10:03;5.23;;;4.20;;
60257;SDS011;46115;44.484;11.314;2022-08-30T11:14:19;6.88;;;3.85;;
60257;SDS011;46115;44.484;11.314;2022-08-30T11:18:22;8.43;;;4.35;;
60257;SDS011;46115;44.484;11.314;2022-08-30T11:22:28;6.47;;;3.85;;
60257;SDS011;46115;44.484;11.314;2022-08-30T11:31:06;5.63;;;3.92;;
60257;SDS011;46115;44.484;11.314;2022-08-30T11:35:09;4.53;;;3.35;;
60257;SDS011;46115;44.484;11.314;2022-08-30T11:43:48;7.60;;;3.53;;
60257;SDS011;46115;44.484;11.314;2022-08-30T11:47:55;7.03;;;4.35;;
60257;SDS011;46115;44.484;11.314;2022-08-30T11:52:07;5.13;;;3.70;;
60257;SDS011;46115;44.484;11.314;2022-08-30T12:00:30;5.75;;;3.75;;
60257;SDS011;46115;44.484;11.314;2022-08-30T12:04:41;8.05;;;3.80;;
60257;SDS011;46115;44.484;11.314;2022-08-30T12:08:47;5.50;;;3.53;;
60257;SDS011;46115;44.484;11.314;2022-08-30T12:12:53;7.18;;;3.72;;
60257;SDS011;46115;44.484;11.314;2022-08-30T12:16:56;5.30;;;3.58;;
60257;SDS011;46115;44.484;11.314;2022-08-30T12:21:26;6.43;;;3.53;;
60257;SDS011;46115;44.484;11.314;2022-08-30T12:25:32;6.30;;;3.13;;
60257;SDS011;46115;44.484;11.314;2022-08-30T12:29:34;5.57;;;3.65;;
60257;SDS011;46115;44.484;11.314;2022-08-30T12:33:40;5.43;;;3.47;;
60257;SDS011;46115;44.484;11.314;2022-08-30T12:37:53;5.22;;;3.60;;
60257;SDS011;46115;44.484;11.314;2022-08-30T12:42:09;3.80;;;3.30;;
60257;SDS011;46115;44.484;11.314;2022-08-30T12:46:13;8.10;;;3.60;;
60257;SDS011;46115;44.484;11.314;2022-08-30T12:50:20;6.65;;;3.33;;
60257;SDS011;46115;44.484;11.314;2022-08-30T12:54:28;3.72;;;3.05;;
60257;SDS011;46115;44.484;11.314;2022-08-30T12:58:35;5.53;;;3.40;;
60257;SDS011;46115;44.484;11.314;2022-08-30T13:02:44;5.72;;;3.08;;
60257;SDS011;46115;44.484;11.314;2022-08-30T13:06:52;4.90;;;3.20;;
60257;SDS011;46115;44.484;11.314;2022-08-30T13:10:59;4.05;;;3.05;;
60257;SDS011;46115;44.484;11.314;2022-08-30T13:19:30;5.05;;;2.97;;
60257;SDS011;46115;44.484;11.314;2022-08-30T13:23:34;6.53;;;2.90;;
60257;SDS011;46115;44.484;11.314;2022-08-30T13:27:38;3.80;;;2.80;;
60257;SDS011;46115;44.484;11.314;2022-08-30T13:31:41;4.15;;;2.88;;
60257;SDS011;46115;44.484;11.314;2022-08-30T13:35:43;4.43;;;2.88;;
60257;SDS011;46115;44.484;11.314;2022-08-30T13:39:46;6.30;;;3.05;;
60257;SDS011;46115;44.484;11.314;2022-08-30T13:43:50;7.40;;;2.80;;
60257;SDS011;46115;44.484;11.314;2022-08-30T13:47:53;5.55;;;3.00;;
60257;SDS011;46115;44.484;11.314;2022-08-30T13:51:56;3.10;;;2.80;;
60257;SDS011;46115;44.484;11.314;2022-08-30T13:55:59;4.22;;;3.08;;
60257;SDS011;46115;44.484;11.314;2022-08-30T14:00:04;4.32;;;2.75;;
60257;SDS011;46115;44.484;11.314;2022-08-30T14:04:12;5.33;;;3.07;;
60257;SDS011;46115;44.484;11.314;2022-08-30T14:08:16;3.33;;;2.72;;
60257;SDS011;46115;44.484;11.314;2022-08-30T14:12:20;5.07;;;2.92;;
60257;SDS011;46115;44.484;11.314;2022-08-30T14:16:24;3.50;;;2.67;;
60257;SDS011;46115;44.484;11.314;2022-08-30T14:20:26;5.25;;;2.70;;
60257;SDS011;46115;44.484;11.314;2022-08-30T14:24:29;4.75;;;2.80;;
60257;SDS011;46115;44.484;11.314;2022-08-30T14:28:32;5.55;;;2.78;;
60257;SDS011;46115;44.484;11.314;2022-08-30T14:32:36;4.05;;;3.05;;
60257;SDS011;46115;44.484;11.314;2022-08-30T14:36:39;5.05;;;3.00;;
60257;SDS011;46115;44.484;11.314;2022-08-30T14:40:43;5.72;;;3.20;;
60257;SDS011;46115;44.484;11.314;2022-08-30T14:44:45;5.13;;;3.08;;
60257;SDS011;46115;44.484;11.314;2022-08-30T14:48:49;4.70;;;2.72;;
60257;SDS011;46115;44.484;11.314;2022-08-30T14:52:51;4.38;;;3.00;;
60257;SDS011;46115;44.484;11.314;2022-08-30T14:56:54;7.13;;;3.17;;
60257;SDS011;46115;44.484;11.314;2022-08-30T15:00:57;4.88;;;3.10;;
60257;SDS011;46115;44.484;11.314;2022-08-30T15:05:00;3.42;;;3.10;;
60257;SDS011;46115;44.484;11.314;2022-08-30T15:09:03;5.82;;;3.05;;
60257;SDS011;46115;44.484;11.314;2022-08-30T15:13:06;4.45;;;2.80;;
60257;SDS011;46115;44.484;11.314;2022-08-30T15:17:08;5.47;;;2.90;;
60257;SDS011;46115;44.484;11.314;2022-08-30T15:21:20;4.35;;;3.08;;
60257;SDS011;46115;44.484;11.314;2022-08-30T15:25:23;4.75;;;2.85;;
60257;SDS011;46115;44.484;11.314;2022-08-30T15:29:26;3.50;;;2.67;;
60257;SDS011;46115;44.484;11.314;2022-08-30T15:33:29;14.70;;;3.83;;
60257;SDS011;46115;44.484;11.314;2022-08-30T15:37:33;6.10;;;3.10;;
60257;SDS011;46115;44.484;11.314;2022-08-30T15:41:37;7.90;;;3.33;;
60257;SDS011;46115;44.484;11.314;2022-08-30T15:45:40;6.35;;;2.80;;
60257;SDS011;46115;44.484;11.314;2022-08-30T15:49:42;4.22;;;2.70;;
60257;SDS011;46115;44.484;11.314;2022-08-30T15:53:46;5.63;;;3.45;;
60257;SDS011;46115;44.484;11.314;2022-08-30T15:57:49;5.65;;;3.25;;
60257;SDS011;46115;44.484;11.314;2022-08-30T16:01:51;6.18;;;3.25;;
60257;SDS011;46115;44.484;11.314;2022-08-30T16:05:54;7.35;;;3.50;;
60257;SDS011;46115;44.484;11.314;2022-08-30T16:09:58;6.97;;;3.83;;
60257;SDS011;46115;44.484;11.314;2022-08-30T16:14:00;6.20;;;3.67;;
60257;SDS011;46115;44.484;11.314;2022-08-30T16:18:03;6.05;;;3.78;;
60257;SDS011;46115;44.484;11.314;2022-08-30T16:22:06;9.35;;;4.15;;
60257;SDS011;46115;44.484;11.314;2022-08-30T16:26:12;9.15;;;4.20;;
60257;SDS011;46115;44.484;11.314;2022-08-30T16:30:18;5.45;;;3.53;;
60257;SDS011;46115;44.484;11.314;2022-08-30T16:34:20;5.38;;;3.63;;
60257;SDS011;46115;44.484;11.314;2022-08-30T16:38:23;8.35;;;3.70;;
60257;SDS011;46115;44.484;11.314;2022-08-30T16:42:28;7.50;;;3.58;;
60257;SDS011;46115;44.484;11.314;2022-08-30T16:46:30;5.60;;;3.83;;
60257;SDS011;46115;44.484;11.314;2022-08-30T16:50:33;7.85;;;4.38;;
60257;SDS011;46115;44.484;11.314;2022-08-30T16:54:36;6.93;;;3.75;;
60257;SDS011;46115;44.484;11.314;2022-08-30T16:58:40;4.55;;;3.80;;
60257;SDS011;46115;44.484;11.314;2022-08-30T17:02:44;6.90;;;4.05;;
60257;SDS011;46115;44.484;11.314;2022-08-30T17:06:47;5.65;;;3.95;;
60257;SDS011;46115;44.484;11.314;2022-08-30T17:10:50;10.80;;;3.95;;
60257;SDS011;46115;44.484;11.314;2022-08-30T17:14:54;6.13;;;4.00;;
60257;SDS011;46115;44.484;11.314;2022-08-30T17:18:57;5.78;;;4.35;;
60257;SDS011;46115;44.484;11.314;2022-08-30T17:23:01;6.55;;;4.13;;
60257;SDS011;46115;44.484;11.314;2022-08-30T17:27:03;9.20;;;4.43;;
60257;SDS011;46115;44.484;11.314;2022-08-30T17:31:09;8.38;;;4.18;;
60257;SDS011;46115;44.484;11.314;2022-08-30T17:35:11;7.40;;;3.78;;
60257;SDS011;46115;44.484;11.314;2022-08-30T17:39:14;6.53;;;3.85;;
60257;SDS011;46115;44.484;11.314;2022-08-30T17:43:17;6.10;;;3.83;;
60257;SDS011;46115;44.484;11.314;2022-08-30T17:47:20;4.97;;;3.47;;
60257;SDS011;46115;44.484;11.314;2022-08-30T17:51:23;5.45;;;3.78;;
60257;SDS011;46115;44.484;11.314;2022-08-30T17:55:25;6.93;;;4.10;;
60257;SDS011;46115;44.484;11.314;2022-08-30T17:59:28;6.32;;;4.10;;
60257;SDS011;46115;44.484;11.314;2022-08-30T18:03:32;9.10;;;4.18;;
60257;SDS011;46115;44.484;11.314;2022-08-30T18:07:35;8.93;;;4.60;;
60257;SDS011;46115;44.484;11.314;2022-08-30T18:11:38;8.52;;;4.55;;
60257;SDS011;46115;44.484;11.314;2022-08-30T18:15:40;7.55;;;4.80;;
60257;SDS011;46115;44.484;11.314;2022-08-30T18:19:44;10.45;;;5.25;;
60257;SDS011;46115;44.484;11.314;2022-08-30T18:23:47;9.63;;;5.50;;
60257;SDS011;46115;44.484;11.314;2022-08-30T18:27:50;7.93;;;5.13;;
60257;SDS011;46115;44.484;11.314;2022-08-30T18:31:53;9.80;;;5.75;;
60257;SDS011;46115;44.484;11.314;2022-08-30T18:35:57;7.57;;;4.53;;
60257;SDS011;46115;44.484;11.314;2022-08-30T22:06:08;5.85;;;3.65;;
60257;SDS011;46115;44.484;11.314;2022-08-30T22:10:13;4.80;;;3.42;;
60257;SDS011;46115;44.484;11.314;2022-08-30T22:14:16;4.55;;;3.50;;
60257;SDS011;46115;44.484;11.314;2022-08-30T22:18:19;8.00;;;4.00;;
60257;SDS011;46115;44.484;11.314;2022-08-30T22:22:23;7.20;;;3.80;;
60257;SDS011;46115;44.484;11.314;2022-08-30T22:26:25;6.72;;;3.10;;
60257;SDS011;46115;44.484;11.314;2022-08-30T22:30:28;9.68;;;3.63;;
60257;SDS011;46115;44.484;11.314;2022-08-30T22:34:31;6.75;;;3.40;;
60257;SDS011;46115;44.484;11.314;2022-08-30T22:38:38;5.07;;;3.33;;
60257;SDS011;46115;44.484;11.314;2022-08-30T22:42:41;7.60;;;3.53;;
60257;SDS011;46115;44.484;11.314;2022-08-30T22:46:44;9.23;;;3.67;;
60257;SDS011;46115;44.484;11.314;2022-08-30T22:50:46;8.38;;;3.72;;
60257;SDS011;46115;44.484;11.314;2022-08-30T22:54:50;5.28;;;3.42;;
60257;SDS011;46115;44.484;11.314;2022-08-30T22:58:53;9.63;;;3.80;;
60257;SDS011;46115;44.484;11.314;2022-08-30T23:02:56;4.78;;;3.58;;
60257;SDS011;46115;44.484;11.314;2022-08-30T23:06:59;7.03;;;3.75;;
60257;SDS011;46115;44.484;11.314;2022-08-30T23:11:02;6.72;;;4.05;;
60257;SDS011;46115;44.484;11.314;2022-08-30T23:15:06;9.32;;;4.18;;
60257;SDS011;46115;44.484;11.314;2022-08-30T23:19:10;7.13;;;3.92;;
60257;SDS011;46115;44.484;11.314;2022-08-30T23:23:13;5.28;;;4.10;;
60257;SDS011;46115;44.484;11.314;2022-08-30T23:27:34;6.57;;;3.92;;
60257;SDS011;46115;44.484;11.314;2022-08-30T23:31:54;8.37;;;4.30;;
60257;SDS011;46115;44.484;11.314;2022-08-30T23:36:14;6.65;;;3.80;;
60257;SDS011;46115;44.484;11.314;2022-08-30T23:40:34;6.38;;;3.53;;
60257;SDS011;46115;44.484;11.314;2022-08-30T23:44:55;6.75;;;3.85;;
60257;SDS011;46115;44.484;11.314;2022-08-30T23:49:15;5.93;;;3.85;;
60257;SDS011;46115;44.484;11.314;2022-08-30T23:53:35;6.35;;;3.70;;
60257;SDS011;46115;44.484;11.314;2022-08-30T23:57:55;5.25;;;3.78;;
